METAR Data
IDs: Format: Raw Decoded Include TAF

Data at: 1502 UTC 18 Aug 2019

PATA 181452Z 00000KT 10SM CLR 02/01 A3046 RMK AO2 SLP319 T00220006 53004
PATA 181352Z VRB03KT 10SM CLR 06/01 A3046 RMK AO2 SLP316 T00610011
PATA 181252Z AUTO 00000KT 10SM CLR 06/01 A3045 RMK AO2 SLP315 T00560011 TSNO
PATA 181152Z AUTO 03004KT 10SM CLR 08/02 A3045 RMK AO2 SLP314 T00780017 10117 20050 55002 TSNO
PATA 181052Z AUTO 00000KT 10SM CLR 06/02 A3044 RMK AO2 SLP311 T00610022 TSNO
PATA 180952Z AUTO 34003KT 10SM CLR 08/03 A3044 RMK AO2 SLP312 T00780028 TSNO
PATA 180852Z AUTO 32004KT 10SM CLR 07/03 A3046 RMK AO2 SLP316 T00670033 401780056 58006 TSNO
PATA 180752Z AUTO 00000KT 10SM CLR 08/03 A3047 RMK AO2 SLP320 T00830033 TSNO
PATA 180652Z AUTO 36003KT 10SM CLR 10/03 A3047 RMK AO2 SLP321 T01000033 TSNO
PATA 180552Z AUTO 35006KT 10SM CLR 12/03 A3047 RMK AO2 SLP323 T01170033 10178 20117 58008 TSNO
PATA 180452Z 35007KT 10SM CLR 14/03 A3048 RMK AO2 SLP325 T01390033
PATA 180352Z 34008KT 10SM FEW070 16/02 A3049 RMK AO2 SLP329 T01560022
PATA 180252Z 36008G15KT 10SM BKN060 16/03 A3050 RMK AO2 SLP331 T01610028 58006
PATA 180152Z 32008KT 10SM BKN060 17/03 A3050 RMK AO2 SLP332 T01670028
PATA 180052Z 34010KT 10SM BKN060 17/04 A3051 RMK AO2 SLP335 T01720039
PATA 172352Z 00000KT 10SM BKN060 18/06 A3052 RMK AO2 SLP336 T01780056 10178 20117 58009
PATA 172252Z 22003KT 10SM BKN040 17/06 A3053 RMK AO2 SLP340 T01670061
PATA 172152Z VRB03KT 10SM SCT040 16/05 A3054 RMK AO2 SLP346 T01610050
PATA 172052Z 00000KT 10SM FEW045 15/04 A3054 RMK AO2 SLP346 T01500044 51007
PATA 171952Z VRB03KT 10SM CLR 14/04 A3054 RMK AO2 SLP345 T01440044
PATA 171852Z VRB03KT 10SM CLR 13/05 A3054 RMK AO2 SLP343 T01330050
PATA 171752Z 00000KT 10SM CLR 13/03 A3052 RMK AO2 SLP339 T01280033 10128 20056 51016
PATA 171652Z 34005KT 10SM CLR 11/03 A3051 RMK AO2 SLP334 T01060028
PATA 171552Z 35005KT 10SM CLR 08/02 A3050 RMK AO2 SLP330 T00780022
PATA 171452Z 02005KT 10SM CLR 06/02 A3048 RMK AO2 SLP323 T00560022 51020
PATA 171352Z 03005KT 10SM CLR 06/02 A3046 RMK AO2 SLP319 T00610017
PATA 171252Z AUTO 00000KT 10SM CLR 07/03 A3045 RMK AO2 SLP313 T00720028 TSNO
PATA 171152Z AUTO 01004KT 10SM BKN075 08/03 A3042 RMK AO2 SLP303 70035 T00830028 10111 20083 51023 TSNO
PATA 171052Z AUTO 26003KT 10SM SCT075 09/02 A3040 RMK AO2 SLP297 T00890017 TSNO
PATA 170952Z AUTO VRB04KT 10SM FEW070 10/04 A3037 RMK AO2 SLP288 T01000039 TSNO
PATA 170852Z AUTO 00000KT 10SM BKN085 11/00 A3035 RMK AO2 SLP280 T01060000 401440094 53029 TSNO
PATA 170752Z AUTO VRB04KT 10SM BKN100 10/04 A3031 RMK AO2 SLP266 T01000039 TSNO
PATA 170652Z AUTO 30009KT 10SM BKN032 BKN050 OVC060 11/06 A3028 RMK AO2 SLP257 T01060056 TSNO
PATA 170552Z AUTO 28007KT 10SM OVC037 11/06 A3026 RMK AO2 SLP250 T01110061 10139 20111 53016 TSNO
PATA 170452Z VRB06KT 10SM OVC060 11/06 A3023 RMK AO2 SLP241 T01110056
PATA 170352Z 28011G20KT 10SM BKN060 12/04 A3023 RMK AO2 SLP239 T01170044